sensor_id;sensor_type;location;lat;lon;timestamp;temperature;humidity
5508;DHT22;2776;51.046;6.772;2023-03-23T00:00:49;13.00;99.90
5508;DHT22;2776;51.046;6.772;2023-03-23T00:03:17;13.00;99.90
5508;DHT22;2776;51.046;6.772;2023-03-23T00:05:46;13.00;99.90
5508;DHT22;2776;51.046;6.772;2023-03-23T00:08:16;13.00;99.90
5508;DHT22;2776;51.046;6.772;2023-03-23T00:10:42;13.00;99.90
5508;DHT22;2776;51.046;6.772;2023-03-23T00:13:09;13.00;99.90
5508;DHT22;2776;51.046;6.772;2023-03-23T00:15:36;13.00;99.90
5508;DHT22;2776;51.046;6.772;2023-03-23T00:18:06;13.00;99.90
5508;DHT22;2776;51.046;6.772;2023-03-23T00:20:35;13.00;99.90
5508;DHT22;2776;51.046;6.772;2023-03-23T00:23:07;13.00;99.90
5508;DHT22;2776;51.046;6.772;2023-03-23T00:25:33;13.00;99.90
5508;DHT22;2776;51.046;6.772;2023-03-23T00:28:00;13.10;99.90
5508;DHT22;2776;51.046;6.772;2023-03-23T00:30:28;13.10;99.90
5508;DHT22;2776;51.046;6.772;2023-03-23T00:32:55;13.10;99.90
5508;DHT22;2776;51.046;6.772;2023-03-23T00:35:23;13.00;99.90
5508;DHT22;2776;51.046;6.772;2023-03-23T00:37:51;13.00;99.90
5508;DHT22;2776;51.046;6.772;2023-03-23T00:40:18;13.00;99.90
5508;DHT22;2776;51.046;6.772;2023-03-23T00:42:45;13.00;99.90
5508;DHT22;2776;51.046;6.772;2023-03-23T00:45:14;13.00;99.90
5508;DHT22;2776;51.046;6.772;2023-03-23T00:47:40;13.00;99.90
5508;DHT22;2776;51.046;6.772;2023-03-23T00:50:12;13.00;99.90
5508;DHT22;2776;51.046;6.772;2023-03-23T00:52:40;13.00;99.90
5508;DHT22;2776;51.046;6.772;2023-03-23T00:55:08;13.00;99.90
5508;DHT22;2776;51.046;6.772;2023-03-23T00:57:35;13.00;99.90
5508;DHT22;2776;51.046;6.772;2023-03-23T01:00:03;13.00;99.90
5508;DHT22;2776;51.046;6.772;2023-03-23T01:02:34;13.00;99.90
5508;DHT22;2776;51.046;6.772;2023-03-23T01:05:01;13.00;99.90
5508;DHT22;2776;51.046;6.772;2023-03-23T01:07:29;13.00;99.90
5508;DHT22;2776;51.046;6.772;2023-03-23T01:09:56;13.00;99.90
5508;DHT22;2776;51.046;6.772;2023-03-23T01:12:26;13.00;99.90
5508;DHT22;2776;51.046;6.772;2023-03-23T01:14:53;13.00;99.90
5508;DHT22;2776;51.046;6.772;2023-03-23T01:17:20;13.00;99.90
5508;DHT22;2776;51.046;6.772;2023-03-23T01:19:47;13.00;99.90
5508;DHT22;2776;51.046;6.772;2023-03-23T01:22:14;13.00;99.90
5508;DHT22;2776;51.046;6.772;2023-03-23T01:24:41;13.00;99.90
5508;DHT22;2776;51.046;6.772;2023-03-23T01:27:07;13.00;99.90
5508;DHT22;2776;51.046;6.772;2023-03-23T01:29:36;13.00;99.90
5508;DHT22;2776;51.046;6.772;2023-03-23T01:32:03;12.90;99.90
5508;DHT22;2776;51.046;6.772;2023-03-23T01:34:29;12.90;99.90
5508;DHT22;2776;51.046;6.772;2023-03-23T01:36:56;12.90;99.90
5508;DHT22;2776;51.046;6.772;2023-03-23T01:39:23;12.80;99.90
5508;DHT22;2776;51.046;6.772;2023-03-23T01:41:50;12.70;99.90
5508;DHT22;2776;51.046;6.772;2023-03-23T01:47:22;12.60;99.90
5508;DHT22;2776;51.046;6.772;2023-03-23T01:49:52;12.60;99.90
5508;DHT22;2776;51.046;6.772;2023-03-23T01:52:22;12.50;99.90
5508;DHT22;2776;51.046;6.772;2023-03-23T01:54:50;12.40;99.90
5508;DHT22;2776;51.046;6.772;2023-03-23T01:57:20;12.40;99.90
5508;DHT22;2776;51.046;6.772;2023-03-23T01:59:50;12.50;99.90
5508;DHT22;2776;51.046;6.772;2023-03-23T02:02:22;12.40;99.90
5508;DHT22;2776;51.046;6.772;2023-03-23T02:04:49;12.40;99.90
5508;DHT22;2776;51.046;6.772;2023-03-23T02:07:18;12.30;99.90
5508;DHT22;2776;51.046;6.772;2023-03-23T02:09:46;12.30;99.90
5508;DHT22;2776;51.046;6.772;2023-03-23T02:12:13;12.20;99.90
5508;DHT22;2776;51.046;6.772;2023-03-23T02:14:40;12.20;99.90
5508;DHT22;2776;51.046;6.772;2023-03-23T02:17:09;12.20;99.90
5508;DHT22;2776;51.046;6.772;2023-03-23T02:20:06;12.20;99.90
5508;DHT22;2776;51.046;6.772;2023-03-23T02:23:00;12.20;99.90
5508;DHT22;2776;51.046;6.772;2023-03-23T02:29:06;12.20;99.90
5508;DHT22;2776;51.046;6.772;2023-03-23T02:32:04;12.10;99.90
5508;DHT22;2776;51.046;6.772;2023-03-23T02:34:40;12.10;99.90
5508;DHT22;2776;51.046;6.772;2023-03-23T02:37:11;12.20;99.90
5508;DHT22;2776;51.046;6.772;2023-03-23T02:39:43;12.10;99.90
5508;DHT22;2776;51.046;6.772;2023-03-23T02:42:13;12.10;99.90
5508;DHT22;2776;51.046;6.772;2023-03-23T02:44:43;12.10;99.90
5508;DHT22;2776;51.046;6.772;2023-03-23T02:47:14;12.10;99.90
5508;DHT22;2776;51.046;6.772;2023-03-23T02:49:45;12.00;99.90
5508;DHT22;2776;51.046;6.772;2023-03-23T02:52:17;12.00;99.90
5508;DHT22;2776;51.046;6.772;2023-03-23T02:54:48;11.90;99.90
5508;DHT22;2776;51.046;6.772;2023-03-23T02:57:15;11.90;99.90
5508;DHT22;2776;51.046;6.772;2023-03-23T02:59:42;12.00;99.90
5508;DHT22;2776;51.046;6.772;2023-03-23T03:02:12;12.00;99.90
5508;DHT22;2776;51.046;6.772;2023-03-23T03:04:44;12.10;99.90
5508;DHT22;2776;51.046;6.772;2023-03-23T03:07:26;12.10;99.90
5508;DHT22;2776;51.046;6.772;2023-03-23T03:09:57;12.10;99.90
5508;DHT22;2776;51.046;6.772;2023-03-23T03:12:32;12.10;99.90
5508;DHT22;2776;51.046;6.772;2023-03-23T03:15:11;12.20;99.90
5508;DHT22;2776;51.046;6.772;2023-03-23T03:17:43;12.20;99.90
5508;DHT22;2776;51.046;6.772;2023-03-23T03:20:12;12.20;99.90
5508;DHT22;2776;51.046;6.772;2023-03-23T03:22:41;12.20;99.90
5508;DHT22;2776;51.046;6.772;2023-03-23T03:25:10;12.20;99.90
5508;DHT22;2776;51.046;6.772;2023-03-23T03:27:40;12.20;99.90
5508;DHT22;2776;51.046;6.772;2023-03-23T03:30:09;12.20;99.90
5508;DHT22;2776;51.046;6.772;2023-03-23T03:32:41;12.20;99.90
5508;DHT22;2776;51.046;6.772;2023-03-23T03:35:13;12.20;99.90
5508;DHT22;2776;51.046;6.772;2023-03-23T03:37:41;12.20;99.90
5508;DHT22;2776;51.046;6.772;2023-03-23T03:40:10;12.30;99.90
5508;DHT22;2776;51.046;6.772;2023-03-23T03:42:39;12.30;99.90
5508;DHT22;2776;51.046;6.772;2023-03-23T03:45:07;12.30;99.90
5508;DHT22;2776;51.046;6.772;2023-03-23T03:47:34;12.30;99.90
5508;DHT22;2776;51.046;6.772;2023-03-23T03:50:01;12.30;99.90
5508;DHT22;2776;51.046;6.772;2023-03-23T03:52:29;12.30;99.90
5508;DHT22;2776;51.046;6.772;2023-03-23T03:54:57;12.30;99.90
5508;DHT22;2776;51.046;6.772;2023-03-23T03:57:24;12.30;99.90
5508;DHT22;2776;51.046;6.772;2023-03-23T03:59:51;12.40;99.90
5508;DHT22;2776;51.046;6.772;2023-03-23T04:02:18;12.30;99.90
5508;DHT22;2776;51.046;6.772;2023-03-23T04:04:46;12.30;99.90
5508;DHT22;2776;51.046;6.772;2023-03-23T04:07:13;12.30;99.90
5508;DHT22;2776;51.046;6.772;2023-03-23T04:09:43;12.20;99.90
5508;DHT22;2776;51.046;6.772;2023-03-23T04:12:12;12.30;99.90
5508;DHT22;2776;51.046;6.772;2023-03-23T04:14:38;12.30;99.90
5508;DHT22;2776;51.046;6.772;2023-03-23T04:17:05;12.20;99.90
5508;DHT22;2776;51.046;6.772;2023-03-23T04:19:34;12.20;99.90
5508;DHT22;2776;51.046;6.772;2023-03-23T04:22:02;12.30;99.90
5508;DHT22;2776;51.046;6.772;2023-03-23T04:24:29;12.30;99.90
5508;DHT22;2776;51.046;6.772;2023-03-23T04:26:59;12.30;99.90
5508;DHT22;2776;51.046;6.772;2023-03-23T04:29:27;12.40;99.90
5508;DHT22;2776;51.046;6.772;2023-03-23T04:31:53;12.30;99.90
5508;DHT22;2776;51.046;6.772;2023-03-23T04:34:21;12.40;99.90
5508;DHT22;2776;51.046;6.772;2023-03-23T04:36:49;12.30;99.90
5508;DHT22;2776;51.046;6.772;2023-03-23T04:39:16;12.30;99.90
5508;DHT22;2776;51.046;6.772;2023-03-23T04:41:43;12.30;99.90
5508;DHT22;2776;51.046;6.772;2023-03-23T04:44:12;12.20;99.90
5508;DHT22;2776;51.046;6.772;2023-03-23T04:46:43;12.20;99.90
5508;DHT22;2776;51.046;6.772;2023-03-23T04:49:15;12.20;99.90
5508;DHT22;2776;51.046;6.772;2023-03-23T04:51:46;12.10;99.90
5508;DHT22;2776;51.046;6.772;2023-03-23T04:54:13;12.10;99.90
5508;DHT22;2776;51.046;6.772;2023-03-23T04:56:40;12.10;99.90
5508;DHT22;2776;51.046;6.772;2023-03-23T04:59:07;12.10;99.90
5508;DHT22;2776;51.046;6.772;2023-03-23T05:01:35;12.10;99.90
5508;DHT22;2776;51.046;6.772;2023-03-23T05:04:04;12.10;99.90
5508;DHT22;2776;51.046;6.772;2023-03-23T05:06:31;12.10;99.90
5508;DHT22;2776;51.046;6.772;2023-03-23T05:08:57;12.20;99.90
5508;DHT22;2776;51.046;6.772;2023-03-23T05:11:24;12.20;99.90
5508;DHT22;2776;51.046;6.772;2023-03-23T05:13:51;12.20;99.90
5508;DHT22;2776;51.046;6.772;2023-03-23T05:16:18;12.20;99.90
5508;DHT22;2776;51.046;6.772;2023-03-23T05:18:46;12.20;99.90
5508;DHT22;2776;51.046;6.772;2023-03-23T05:21:13;12.20;99.90
5508;DHT22;2776;51.046;6.772;2023-03-23T05:23:41;12.30;99.90
5508;DHT22;2776;51.046;6.772;2023-03-23T05:26:07;12.30;99.90
5508;DHT22;2776;51.046;6.772;2023-03-23T05:28:34;12.40;99.90
5508;DHT22;2776;51.046;6.772;2023-03-23T05:31:01;12.40;99.90
5508;DHT22;2776;51.046;6.772;2023-03-23T05:33:28;12.40;99.90
5508;DHT22;2776;51.046;6.772;2023-03-23T05:35:56;12.40;99.90
5508;DHT22;2776;51.046;6.772;2023-03-23T05:38:23;12.50;99.90
5508;DHT22;2776;51.046;6.772;2023-03-23T05:40:50;12.40;99.90
5508;DHT22;2776;51.046;6.772;2023-03-23T05:43:17;12.40;99.90
5508;DHT22;2776;51.046;6.772;2023-03-23T05:45:44;12.50;99.90
5508;DHT22;2776;51.046;6.772;2023-03-23T05:48:11;12.60;99.90
5508;DHT22;2776;51.046;6.772;2023-03-23T05:50:38;12.50;99.90
5508;DHT22;2776;51.046;6.772;2023-03-23T05:53:06;12.50;99.90
5508;DHT22;2776;51.046;6.772;2023-03-23T05:55:33;12.50;99.90
5508;DHT22;2776;51.046;6.772;2023-03-23T05:58:00;12.50;99.90
5508;DHT22;2776;51.046;6.772;2023-03-23T06:00:27;12.50;99.90
5508;DHT22;2776;51.046;6.772;2023-03-23T06:02:56;12.40;99.90
5508;DHT22;2776;51.046;6.772;2023-03-23T06:05:23;12.40;99.90
5508;DHT22;2776;51.046;6.772;2023-03-23T06:07:51;12.30;99.90
5508;DHT22;2776;51.046;6.772;2023-03-23T06:10:19;12.40;99.90
5508;DHT22;2776;51.046;6.772;2023-03-23T06:12:46;12.30;99.90
5508;DHT22;2776;51.046;6.772;2023-03-23T06:15:13;12.30;99.90
5508;DHT22;2776;51.046;6.772;2023-03-23T06:17:40;12.40;99.90
5508;DHT22;2776;51.046;6.772;2023-03-23T06:20:08;12.50;99.90
5508;DHT22;2776;51.046;6.772;2023-03-23T06:22:36;12.50;99.90
5508;DHT22;2776;51.046;6.772;2023-03-23T06:25:04;12.50;99.90
5508;DHT22;2776;51.046;6.772;2023-03-23T06:27:32;12.50;99.90
5508;DHT22;2776;51.046;6.772;2023-03-23T06:30:00;12.50;99.90
5508;DHT22;2776;51.046;6.772;2023-03-23T06:32:30;12.60;99.90
5508;DHT22;2776;51.046;6.772;2023-03-23T06:34:57;12.60;99.90
5508;DHT22;2776;51.046;6.772;2023-03-23T06:37:24;12.60;99.90
5508;DHT22;2776;51.046;6.772;2023-03-23T06:39:51;12.60;99.90
5508;DHT22;2776;51.046;6.772;2023-03-23T06:42:18;12.60;99.90
5508;DHT22;2776;51.046;6.772;2023-03-23T06:44:46;12.70;99.90
5508;DHT22;2776;51.046;6.772;2023-03-23T06:47:13;12.70;99.90
5508;DHT22;2776;51.046;6.772;2023-03-23T06:49:39;12.70;99.90
5508;DHT22;2776;51.046;6.772;2023-03-23T06:52:06;12.70;99.90
5508;DHT22;2776;51.046;6.772;2023-03-23T06:54:41;12.80;99.90
5508;DHT22;2776;51.046;6.772;2023-03-23T06:57:08;12.80;99.90
5508;DHT22;2776;51.046;6.772;2023-03-23T06:59:35;12.80;99.90
5508;DHT22;2776;51.046;6.772;2023-03-23T07:02:03;12.80;99.90
5508;DHT22;2776;51.046;6.772;2023-03-23T07:04:30;12.80;99.90
5508;DHT22;2776;51.046;6.772;2023-03-23T07:06:57;12.80;99.90
5508;DHT22;2776;51.046;6.772;2023-03-23T07:09:25;12.80;99.90
5508;DHT22;2776;51.046;6.772;2023-03-23T07:11:52;12.80;99.90
5508;DHT22;2776;51.046;6.772;2023-03-23T07:14:19;12.90;99.90
5508;DHT22;2776;51.046;6.772;2023-03-23T07:16:47;12.90;99.90
5508;DHT22;2776;51.046;6.772;2023-03-23T07:19:15;13.00;99.90
5508;DHT22;2776;51.046;6.772;2023-03-23T07:21:42;13.00;99.90
5508;DHT22;2776;51.046;6.772;2023-03-23T07:24:10;13.10;99.90
5508;DHT22;2776;51.046;6.772;2023-03-23T07:26:39;13.10;99.90
5508;DHT22;2776;51.046;6.772;2023-03-23T07:29:06;13.10;99.90
5508;DHT22;2776;51.046;6.772;2023-03-23T07:31:33;13.10;99.90
5508;DHT22;2776;51.046;6.772;2023-03-23T07:34:00;13.20;99.90
5508;DHT22;2776;51.046;6.772;2023-03-23T07:36:29;13.20;99.90
5508;DHT22;2776;51.046;6.772;2023-03-23T07:38:56;13.10;99.90
5508;DHT22;2776;51.046;6.772;2023-03-23T07:41:24;13.20;99.90
5508;DHT22;2776;51.046;6.772;2023-03-23T07:43:51;13.20;99.90
5508;DHT22;2776;51.046;6.772;2023-03-23T07:46:17;13.20;99.90
5508;DHT22;2776;51.046;6.772;2023-03-23T07:48:44;13.20;99.90
5508;DHT22;2776;51.046;6.772;2023-03-23T07:51:11;13.30;99.90
5508;DHT22;2776;51.046;6.772;2023-03-23T07:53:40;13.30;99.90
5508;DHT22;2776;51.046;6.772;2023-03-23T07:56:10;13.30;99.90
5508;DHT22;2776;51.046;6.772;2023-03-23T07:58:37;13.40;99.90
5508;DHT22;2776;51.046;6.772;2023-03-23T08:01:04;13.40;99.90
5508;DHT22;2776;51.046;6.772;2023-03-23T08:03:32;13.40;99.90
5508;DHT22;2776;51.046;6.772;2023-03-23T08:05:59;13.40;99.90
5508;DHT22;2776;51.046;6.772;2023-03-23T08:08:26;13.50;99.90
5508;DHT22;2776;51.046;6.772;2023-03-23T08:10:54;13.50;99.90
5508;DHT22;2776;51.046;6.772;2023-03-23T08:13:21;13.50;99.90
5508;DHT22;2776;51.046;6.772;2023-03-23T08:15:48;13.50;99.90
5508;DHT22;2776;51.046;6.772;2023-03-23T08:18:15;13.60;99.90
5508;DHT22;2776;51.046;6.772;2023-03-23T08:20:42;13.60;99.90
5508;DHT22;2776;51.046;6.772;2023-03-23T08:23:10;13.70;99.90
5508;DHT22;2776;51.046;6.772;2023-03-23T08:25:37;13.70;99.90
5508;DHT22;2776;51.046;6.772;2023-03-23T08:28:06;13.80;99.90
5508;DHT22;2776;51.046;6.772;2023-03-23T08:30:34;13.70;99.90
5508;DHT22;2776;51.046;6.772;2023-03-23T08:33:03;13.70;99.90
5508;DHT22;2776;51.046;6.772;2023-03-23T08:35:30;13.80;99.90
5508;DHT22;2776;51.046;6.772;2023-03-23T08:37:57;13.80;99.90
5508;DHT22;2776;51.046;6.772;2023-03-23T08:40:24;13.80;99.90
5508;DHT22;2776;51.046;6.772;2023-03-23T08:42:52;13.90;99.90
5508;DHT22;2776;51.046;6.772;2023-03-23T08:45:22;13.90;99.90
5508;DHT22;2776;51.046;6.772;2023-03-23T08:47:50;13.90;99.90
5508;DHT22;2776;51.046;6.772;2023-03-23T08:50:19;14.00;99.90
5508;DHT22;2776;51.046;6.772;2023-03-23T08:52:46;14.10;99.90
5508;DHT22;2776;51.046;6.772;2023-03-23T08:55:14;14.30;99.90
5508;DHT22;2776;51.046;6.772;2023-03-23T08:57:41;14.40;99.90
5508;DHT22;2776;51.046;6.772;2023-03-23T09:00:12;14.50;99.90
5508;DHT22;2776;51.046;6.772;2023-03-23T09:02:42;14.60;99.90
5508;DHT22;2776;51.046;6.772;2023-03-23T09:05:10;14.80;99.90
5508;DHT22;2776;51.046;6.772;2023-03-23T09:07:38;14.80;99.90
5508;DHT22;2776;51.046;6.772;2023-03-23T09:10:06;14.80;99.90
5508;DHT22;2776;51.046;6.772;2023-03-23T09:12:34;14.80;99.90
5508;DHT22;2776;51.046;6.772;2023-03-23T09:15:01;14.60;99.90
5508;DHT22;2776;51.046;6.772;2023-03-23T09:17:34;14.70;99.90
5508;DHT22;2776;51.046;6.772;2023-03-23T09:20:02;14.70;99.90
5508;DHT22;2776;51.046;6.772;2023-03-23T09:22:32;14.60;99.90
5508;DHT22;2776;51.046;6.772;2023-03-23T09:24:59;14.60;99.90
5508;DHT22;2776;51.046;6.772;2023-03-23T09:27:27;14.60;99.90
5508;DHT22;2776;51.046;6.772;2023-03-23T09:29:53;14.60;99.90
5508;DHT22;2776;51.046;6.772;2023-03-23T09:32:21;14.60;99.90
5508;DHT22;2776;51.046;6.772;2023-03-23T09:34:48;14.50;99.90
5508;DHT22;2776;51.046;6.772;2023-03-23T09:37:16;14.50;99.90
5508;DHT22;2776;51.046;6.772;2023-03-23T09:39:42;14.50;99.90
5508;DHT22;2776;51.046;6.772;2023-03-23T09:42:19;14.40;99.90
5508;DHT22;2776;51.046;6.772;2023-03-23T09:45:02;14.30;99.90
5508;DHT22;2776;51.046;6.772;2023-03-23T09:47:37;14.30;99.90
5508;DHT22;2776;51.046;6.772;2023-03-23T09:50:10;14.30;99.90
5508;DHT22;2776;51.046;6.772;2023-03-23T09:52:46;14.30;99.90
5508;DHT22;2776;51.046;6.772;2023-03-23T09:55:16;14.20;99.90
5508;DHT22;2776;51.046;6.772;2023-03-23T09:57:49;14.10;99.90
5508;DHT22;2776;51.046;6.772;2023-03-23T10:00:22;14.20;99.90
5508;DHT22;2776;51.046;6.772;2023-03-23T10:02:55;14.20;99.90
5508;DHT22;2776;51.046;6.772;2023-03-23T10:05:29;14.20;99.90
5508;DHT22;2776;51.046;6.772;2023-03-23T10:07:59;14.30;99.90
5508;DHT22;2776;51.046;6.772;2023-03-23T10:10:33;14.40;99.90
5508;DHT22;2776;51.046;6.772;2023-03-23T10:13:08;14.50;99.90
5508;DHT22;2776;51.046;6.772;2023-03-23T10:15:38;14.30;99.90
5508;DHT22;2776;51.046;6.772;2023-03-23T10:18:12;14.30;99.90
5508;DHT22;2776;51.046;6.772;2023-03-23T10:20:43;14.10;99.90
5508;DHT22;2776;51.046;6.772;2023-03-23T10:23:33;14.10;99.90
5508;DHT22;2776;51.046;6.772;2023-03-23T10:26:07;14.10;99.90
5508;DHT22;2776;51.046;6.772;2023-03-23T10:28:36;14.00;99.90
5508;DHT22;2776;51.046;6.772;2023-03-23T10:31:07;13.90;99.90
5508;DHT22;2776;51.046;6.772;2023-03-23T10:33:38;13.90;99.90
5508;DHT22;2776;51.046;6.772;2023-03-23T10:36:12;13.80;99.90
5508;DHT22;2776;51.046;6.772;2023-03-23T10:38:44;13.80;99.90
5508;DHT22;2776;51.046;6.772;2023-03-23T10:41:13;13.90;99.90
5508;DHT22;2776;51.046;6.772;2023-03-23T10:43:41;13.80;99.90
5508;DHT22;2776;51.046;6.772;2023-03-23T10:46:19;13.80;99.90
5508;DHT22;2776;51.046;6.772;2023-03-23T10:48:49;13.90;99.90
5508;DHT22;2776;51.046;6.772;2023-03-23T10:51:21;13.90;99.90
5508;DHT22;2776;51.046;6.772;2023-03-23T10:53:56;14.00;99.90
5508;DHT22;2776;51.046;6.772;2023-03-23T10:56:24;14.10;99.90
5508;DHT22;2776;51.046;6.772;2023-03-23T10:58:53;14.20;99.90
5508;DHT22;2776;51.046;6.772;2023-03-23T11:01:29;14.30;99.90
5508;DHT22;2776;51.046;6.772;2023-03-23T11:03:56;14.40;99.90
5508;DHT22;2776;51.046;6.772;2023-03-23T11:06:27;14.50;99.90
5508;DHT22;2776;51.046;6.772;2023-03-23T11:08:58;14.70;99.90
5508;DHT22;2776;51.046;6.772;2023-03-23T11:11:28;14.80;99.90
5508;DHT22;2776;51.046;6.772;2023-03-23T11:14:00;15.00;99.90
5508;DHT22;2776;51.046;6.772;2023-03-23T11:16:29;15.20;99.90
5508;DHT22;2776;51.046;6.772;2023-03-23T11:18:57;15.10;99.90
5508;DHT22;2776;51.046;6.772;2023-03-23T11:21:25;15.00;99.90
5508;DHT22;2776;51.046;6.772;2023-03-23T11:23:54;15.00;99.90
5508;DHT22;2776;51.046;6.772;2023-03-23T11:26:26;14.90;99.90
5508;DHT22;2776;51.046;6.772;2023-03-23T11:28:56;15.00;99.90
5508;DHT22;2776;51.046;6.772;2023-03-23T11:31:27;15.20;99.90
5508;DHT22;2776;51.046;6.772;2023-03-23T11:33:57;15.30;99.90
5508;DHT22;2776;51.046;6.772;2023-03-23T11:36:30;15.00;99.90
5508;DHT22;2776;51.046;6.772;2023-03-23T11:38:57;14.50;99.90
5508;DHT22;2776;51.046;6.772;2023-03-23T11:41:31;14.00;99.90
5508;DHT22;2776;51.046;6.772;2023-03-23T11:44:07;13.70;99.90
5508;DHT22;2776;51.046;6.772;2023-03-23T11:46:42;13.70;99.90
5508;DHT22;2776;51.046;6.772;2023-03-23T11:49:16;13.70;99.90
5508;DHT22;2776;51.046;6.772;2023-03-23T11:51:47;13.60;99.90
5508;DHT22;2776;51.046;6.772;2023-03-23T11:54:17;13.80;99.90
5508;DHT22;2776;51.046;6.772;2023-03-23T11:56:47;13.90;99.90
5508;DHT22;2776;51.046;6.772;2023-03-23T11:59:15;14.00;99.90
5508;DHT22;2776;51.046;6.772;2023-03-23T12:01:53;14.10;99.90
5508;DHT22;2776;51.046;6.772;2023-03-23T12:04:40;14.30;99.90
5508;DHT22;2776;51.046;6.772;2023-03-23T12:07:29;14.70;99.90
5508;DHT22;2776;51.046;6.772;2023-03-23T12:10:03;15.00;99.90
5508;DHT22;2776;51.046;6.772;2023-03-23T12:12:37;15.30;99.90
5508;DHT22;2776;51.046;6.772;2023-03-23T12:15:17;15.40;99.90
5508;DHT22;2776;51.046;6.772;2023-03-23T12:17:54;15.50;99.90
5508;DHT22;2776;51.046;6.772;2023-03-23T12:20:33;15.60;99.90
5508;DHT22;2776;51.046;6.772;2023-03-23T12:23:18;15.50;99.90
5508;DHT22;2776;51.046;6.772;2023-03-23T12:25:56;15.60;99.90
5508;DHT22;2776;51.046;6.772;2023-03-23T12:28:35;15.60;99.90
5508;DHT22;2776;51.046;6.772;2023-03-23T12:31:11;15.70;99.90
5508;DHT22;2776;51.046;6.772;2023-03-23T12:33:50;15.70;99.90
5508;DHT22;2776;51.046;6.772;2023-03-23T12:36:32;15.90;99.90
5508;DHT22;2776;51.046;6.772;2023-03-23T12:41:54;16.20;99.90
5508;DHT22;2776;51.046;6.772;2023-03-23T12:44:34;16.30;99.90
5508;DHT22;2776;51.046;6.772;2023-03-23T12:47:10;16.60;99.90
5508;DHT22;2776;51.046;6.772;2023-03-23T12:49:44;16.70;99.90
5508;DHT22;2776;51.046;6.772;2023-03-23T12:52:18;16.50;99.90
5508;DHT22;2776;51.046;6.772;2023-03-23T12:54:53;16.50;99.90
5508;DHT22;2776;51.046;6.772;2023-03-23T12:57:26;16.30;99.90
5508;DHT22;2776;51.046;6.772;2023-03-23T13:00:03;16.20;99.90
5508;DHT22;2776;51.046;6.772;2023-03-23T13:02:40;15.80;99.90
5508;DHT22;2776;51.046;6.772;2023-03-23T13:05:11;15.70;99.90
5508;DHT22;2776;51.046;6.772;2023-03-23T13:07:45;15.40;99.90
5508;DHT22;2776;51.046;6.772;2023-03-23T13:10:20;15.30;99.90
5508;DHT22;2776;51.046;6.772;2023-03-23T13:12:48;15.40;99.90
5508;DHT22;2776;51.046;6.772;2023-03-23T13:15:26;15.30;99.90
5508;DHT22;2776;51.046;6.772;2023-03-23T13:18:02;15.30;99.90
5508;DHT22;2776;51.046;6.772;2023-03-23T13:20:38;15.30;99.90
5508;DHT22;2776;51.046;6.772;2023-03-23T13:23:13;15.20;99.90
5508;DHT22;2776;51.046;6.772;2023-03-23T13:25:48;15.10;99.90
5508;DHT22;2776;51.046;6.772;2023-03-23T13:28:16;15.10;99.90
5508;DHT22;2776;51.046;6.772;2023-03-23T13:30:59;15.10;99.90
5508;DHT22;2776;51.046;6.772;2023-03-23T13:33:30;15.20;99.90
5508;DHT22;2776;51.046;6.772;2023-03-23T13:36:07;15.20;99.90
5508;DHT22;2776;51.046;6.772;2023-03-23T13:38:36;15.20;99.90
5508;DHT22;2776;51.046;6.772;2023-03-23T13:41:09;15.10;99.90
5508;DHT22;2776;51.046;6.772;2023-03-23T13:43:39;14.90;99.90
5508;DHT22;2776;51.046;6.772;2023-03-23T13:46:10;14.90;99.90
5508;DHT22;2776;51.046;6.772;2023-03-23T13:48:43;14.60;99.90
5508;DHT22;2776;51.046;6.772;2023-03-23T13:51:33;14.40;99.90
5508;DHT22;2776;51.046;6.772;2023-03-23T13:54:19;14.00;99.90
5508;DHT22;2776;51.046;6.772;2023-03-23T13:56:53;13.90;99.90
5508;DHT22;2776;51.046;6.772;2023-03-23T13:59:33;13.90;99.90
5508;DHT22;2776;51.046;6.772;2023-03-23T14:02:34;14.10;99.90
5508;DHT22;2776;51.046;6.772;2023-03-23T14:05:10;14.20;99.90
5508;DHT22;2776;51.046;6.772;2023-03-23T14:07:53;14.40;99.90
5508;DHT22;2776;51.046;6.772;2023-03-23T14:10:21;14.50;99.90
5508;DHT22;2776;51.046;6.772;2023-03-23T14:12:50;14.70;99.90
5508;DHT22;2776;51.046;6.772;2023-03-23T14:15:19;14.90;99.90
5508;DHT22;2776;51.046;6.772;2023-03-23T14:17:47;15.00;99.90
5508;DHT22;2776;51.046;6.772;2023-03-23T14:20:23;15.10;99.90
5508;DHT22;2776;51.046;6.772;2023-03-23T14:22:53;15.20;99.90
5508;DHT22;2776;51.046;6.772;2023-03-23T14:25:20;15.40;99.90
5508;DHT22;2776;51.046;6.772;2023-03-23T14:27:51;15.50;99.90
5508;DHT22;2776;51.046;6.772;2023-03-23T14:30:20;15.50;99.90
5508;DHT22;2776;51.046;6.772;2023-03-23T14:32:48;15.40;99.90
5508;DHT22;2776;51.046;6.772;2023-03-23T14:35:21;15.20;99.90
5508;DHT22;2776;51.046;6.772;2023-03-23T14:37:48;15.20;99.90
5508;DHT22;2776;51.046;6.772;2023-03-23T14:40:17;15.20;99.90
5508;DHT22;2776;51.046;6.772;2023-03-23T14:42:45;15.10;99.90
5508;DHT22;2776;51.046;6.772;2023-03-23T14:45:15;15.10;99.90
5508;DHT22;2776;51.046;6.772;2023-03-23T14:47:45;15.10;99.90
5508;DHT22;2776;51.046;6.772;2023-03-23T14:50:27;15.20;99.90
5508;DHT22;2776;51.046;6.772;2023-03-23T14:52:58;15.00;99.90
5508;DHT22;2776;51.046;6.772;2023-03-23T14:55:25;14.80;99.90
5508;DHT22;2776;51.046;6.772;2023-03-23T14:57:54;14.50;99.90
5508;DHT22;2776;51.046;6.772;2023-03-23T15:00:23;14.30;99.90
5508;DHT22;2776;51.046;6.772;2023-03-23T15:02:53;14.10;99.90
5508;DHT22;2776;51.046;6.772;2023-03-23T15:05:25;14.00;99.90
5508;DHT22;2776;51.046;6.772;2023-03-23T15:07:54;14.00;99.90
5508;DHT22;2776;51.046;6.772;2023-03-23T15:10:23;14.00;99.90
5508;DHT22;2776;51.046;6.772;2023-03-23T15:12:51;14.00;99.90
5508;DHT22;2776;51.046;6.772;2023-03-23T15:15:26;14.20;99.90
5508;DHT22;2776;51.046;6.772;2023-03-23T15:17:54;14.40;99.90
5508;DHT22;2776;51.046;6.772;2023-03-23T15:20:25;14.60;99.90
5508;DHT22;2776;51.046;6.772;2023-03-23T15:22:53;14.50;99.90
5508;DHT22;2776;51.046;6.772;2023-03-23T15:25:22;14.60;99.90
5508;DHT22;2776;51.046;6.772;2023-03-23T15:27:51;14.70;99.90
5508;DHT22;2776;51.046;6.772;2023-03-23T15:30:30;14.60;99.90
5508;DHT22;2776;51.046;6.772;2023-03-23T15:33:02;14.70;99.90
5508;DHT22;2776;51.046;6.772;2023-03-23T15:35:35;14.70;99.90
5508;DHT22;2776;51.046;6.772;2023-03-23T15:38:03;14.70;99.90
5508;DHT22;2776;51.046;6.772;2023-03-23T15:40:34;14.80;99.90
5508;DHT22;2776;51.046;6.772;2023-03-23T15:43:15;14.80;99.90
5508;DHT22;2776;51.046;6.772;2023-03-23T15:45:55;14.90;99.90
5508;DHT22;2776;51.046;6.772;2023-03-23T15:48:26;14.90;99.90
5508;DHT22;2776;51.046;6.772;2023-03-23T15:50:54;15.00;99.90
5508;DHT22;2776;51.046;6.772;2023-03-23T15:53:29;15.10;99.90
5508;DHT22;2776;51.046;6.772;2023-03-23T15:55:59;15.10;99.90
5508;DHT22;2776;51.046;6.772;2023-03-23T15:58:26;15.10;99.90
5508;DHT22;2776;51.046;6.772;2023-03-23T16:00:53;15.20;99.90
5508;DHT22;2776;51.046;6.772;2023-03-23T16:03:24;15.30;99.90
5508;DHT22;2776;51.046;6.772;2023-03-23T16:05:54;15.30;99.90
5508;DHT22;2776;51.046;6.772;2023-03-23T16:08:21;15.40;99.90
5508;DHT22;2776;51.046;6.772;2023-03-23T16:10:48;15.30;99.90
5508;DHT22;2776;51.046;6.772;2023-03-23T16:13:16;15.20;99.90
5508;DHT22;2776;51.046;6.772;2023-03-23T16:15:43;15.30;99.90
5508;DHT22;2776;51.046;6.772;2023-03-23T16:18:16;15.30;99.90
5508;DHT22;2776;51.046;6.772;2023-03-23T16:20:43;15.40;99.90
5508;DHT22;2776;51.046;6.772;2023-03-23T16:23:12;15.40;99.90
5508;DHT22;2776;51.046;6.772;2023-03-23T16:25:38;15.40;99.90
5508;DHT22;2776;51.046;6.772;2023-03-23T16:28:08;15.40;99.90
5508;DHT22;2776;51.046;6.772;2023-03-23T16:30:35;15.40;99.90